logo
Rechercher aéroport 
image banner adimage banner adimage banner ad
image banner ad

CL69 - Sutter Lakeside Hospital

Situé à Lakeport, United States

ICAO - CL69, IATA -

Données fournies par Airmate  

Information générale

Coordonnées: N39°6'18" W122°54'24"
Élévation : 1401 feet MSL.
Variation magnétique : 16° East
Voir autres Aéroports à California

Données opérationnelles

Special qualification required
Heure actuelle UTC:
Heure actuelle locale:
Météo à : KUKI - Ukiah Muni ( 25 km )
METAR: KUKI 011556Z AUTO 00000KT 10SM CLR 14/10 A2985 RMK AO2 SLP100 T01440100
TAF: KUKI 011137Z 0112/0212 VRB02KT P6SM SKC FM020000 17006KT P6SM SKC
Voir NOTAMs / SUP AIP / TFR affectant cet aéroport [VIEW]
Fréquences de communication: [VIEW]

Pistes:

Coordonnées de l'aéroport

Adresse: Lakeport United States

Vue satellite de CL69